Station:LAKE CHARLES REGIONAL APState:LAID:KLCH
Latitude:30.12°NLongitude:-93.23°WElevation:9 feet
Station period of record:1961-11-01 ~ 2018-05-30,         1961-11-01 ~ 2018-05-30,         1961-11-01 ~ 2018-05-30,         ,         1961-11-01 ~ 2018-05-30,         1961-11-01 ~ 2018-05-30,         1961-11-01 ~ 2018-05-30,         ,         1961-11-01 ~ 2018-05-30,         1961-11-01 ~ 2018-05-30

SRCC F6 Daily Data

Temperature Precipitation Wind(kts)
Day Max Min Avg DFN Dpt Rel Hum HDD CDD Water Equiv DFN Snow Ice Snow Depth Avg Spd Res Spd Res Dir Peak Gust Obs
2018-05-01 84 64 74 2 65 75 0 9 0.00 -0.14 0.0 0 8.2 8.0 150 21 22
2018-05-02 87 71 79 7 71 80 0 14 0.00 -0.13 0.0 0 12.1 11.9 150 25 24
2018-05-03 85 69 77 5 69 79 0 12 0.00 -0.13 0.0 0 9.1 8.4 163 23 24
2018-05-04 84 67 76 3 67 77 0 11 0.00 -0.14 0.0 0 5.0 3.1 173 M 21
2018-05-05 82 64 73 0 65 77 0 8 0.00 -0.15 0.0 0 4.6 6.1 349 M 17
2018-05-06 89 60 74 1 58 63 0 10 0.00 -0.15 0.0 0 2.6 3.2 8 M 14
2018-05-07 92 61 76 3 59 61 0 12 0.00 -0.16 0.0 0 3.2 4.1 282 M 15
2018-05-08 91 64 78 4 61 62 0 13 0.00 -0.17 0.0 0 3.9 3.3 249 M 22
2018-05-09 89 64 76 2 64 68 0 12 0.00 -0.16 0.0 0 3.5 4.6 230 15 15
2018-05-10 87 63 75 1 62 66 0 10 0.00 -0.15 0.0 0 4.4 4.2 196 15 17
2018-05-11 87 66 76 2 68 76 0 12 0.00 -0.16 0.0 0 6.5 6.5 172 18 21
2018-05-12 89 67 78 3 69 76 0 13 0.00 -0.16 0.0 0 5.3 5.2 162 16 22
2018-05-13 86 69 78 2 72 86 0 13 1.72 1.57 0.0 0 3.6 3.0 153 M 20
2018-05-14 91 69 80 5 68 71 0 15 0.00 -0.16 0.0 0 2.2 2.8 225 M 16
2018-05-15 93 71 82 6 69 71 0 17 0.05 -0.11 0.0 0 4.2 1.7 325 17 20
2018-05-16 94 71 82 7 66 62 0 18 0.00 -0.17 0.0 0 5.6 5.0 275 15 22
2018-05-17 94 74 84 8 69 66 0 19 0.00 -0.18 0.0 0 6.9 6.2 261 M 24
2018-05-18 89 74 82 5 73 77 0 17 0.00 -0.17 0.0 0 5.8 5.0 221 18 22
2018-05-19 90 71 80 4 71 75 0 16 0.00 -0.17 0.0 0 6.3 6.5 164 20 22
2018-05-20 91 73 82 5 72 76 0 17 0.00 -0.18 0.0 0 4.4 4.2 205 18 16
2018-05-21 90 71 80 4 71 78 0 16 0.35 0.18 0.0 0 3.6 1.7 159 18 19
2018-05-22 90 71 80 3 70 74 0 16 0.00 -0.19 0.0 0 2.5 3.0 183 M 12
2018-05-23 88 72 80 3 71 81 0 15 0.11 -0.07 0.0 0 3.7 2.5 95 23 17
2018-05-24 90 72 81 4 70 76 0 16 T -0.18 0.0 0 4.1 2.8 100 M 21
2018-05-25 88 76 82 4 73 81 0 17 0.08 -0.11 0.0 0 3.3 3.9 152 19 16
2018-05-26 88 73 80 3 72 85 0 16 0.14 -0.04 0.0 0 3.8 1.5 147 20 19
2018-05-27 88 72 80 2 72 83 0 15 0.05 -0.15 0.0 0 3.0 0.9 24 M 20
2018-05-28 95 73 84 6 71 69 0 19 0.00 -0.19 0.0 0 3.6 2.9 310 M 19
2018-05-29 95 76 86 7 73 71 0 21 0.00 -0.20 0.0 0 4.8 4.2 241 18 22
2018-05-30 91 75 83 4 73 73 0 18 0.00 -0.19 0.0 0 4.9 4.5 203 16 21
2018-05-31 None None M M 73 74 None None None None None None 5.7 5.2 182 15 21
Ag/Sum 89.2 69.4 79.33 0 437 2.50
Norm 84.6 66.6 75.60 1 330 5.20
DFN 4.6 2.8 3.73 -1 107 -2.70
Temperature Data Precipitation Data
AVERAGE MONTHLY 79.33 TOTAL FOR THE MONTH 2.50
DEPARTURE FROM NORMAL 3.73 DEPARTURE FROM NORMAL -2.70
HIGHEST 95 ON 2018-05-29 GREATEST 24HR TOTAL 1.72
LOWEST 60 ON 2018-05-06 NUMBER OF DAYS WITH
NUMBER OF DAYS WITH - 0.01 INCH OR MORE PRECIP 7
MAX 32 OR BELOW 0 - 0.10 INCH OR MORE PRECIP 4
MAX 90 OR ABOVE 14 - 0.50 INCH OR MORE PRECIP 1
MIN 32 OR BELOW 0 - 1.00 INCH OR MORE PRECIP 1
MIN 0 OR BELOW 0
HEATING DEGREE DAYS(BASE 65)
TOTAL THIS MONTH 0
DEPARTURE FROM NORMAL 107
COOLING DEGREE DAYS(BASE 65)
TOTAL THIS MONTH 437
DEPARTURE FROM NORMAL 107

Data provided by the Southern Regional Climate Center

2018-05-31 21:21:06.820821